sensor_id;sensor_type;location;lat;lon;timestamp;P1;durP1;ratioP1;P2;durP2;ratioP2
4148;SDS011;2088;51.032;7.082;2023-10-08T00:01:55;4.43;;;2.60;;
4148;SDS011;2088;51.032;7.082;2023-10-08T00:04:22;4.57;;;2.80;;
4148;SDS011;2088;51.032;7.082;2023-10-08T00:06:49;8.90;;;2.07;;
4148;SDS011;2088;51.032;7.082;2023-10-08T00:09:17;4.40;;;2.00;;
4148;SDS011;2088;51.032;7.082;2023-10-08T00:11:46;4.83;;;2.20;;
4148;SDS011;2088;51.032;7.082;2023-10-08T00:14:18;11.03;;;3.00;;
4148;SDS011;2088;51.032;7.082;2023-10-08T00:16:46;7.90;;;3.30;;
4148;SDS011;2088;51.032;7.082;2023-10-08T00:19:16;5.17;;;2.47;;
4148;SDS011;2088;51.032;7.082;2023-10-08T00:21:43;3.90;;;2.40;;
4148;SDS011;2088;51.032;7.082;2023-10-08T00:24:12;7.27;;;2.57;;
4148;SDS011;2088;51.032;7.082;2023-10-08T00:26:40;6.33;;;2.43;;
4148;SDS011;2088;51.032;7.082;2023-10-08T00:29:07;3.53;;;2.20;;
4148;SDS011;2088;51.032;7.082;2023-10-08T00:31:41;6.63;;;2.73;;
4148;SDS011;2088;51.032;7.082;2023-10-08T00:34:10;4.07;;;2.10;;
4148;SDS011;2088;51.032;7.082;2023-10-08T00:36:39;5.63;;;2.40;;
4148;SDS011;2088;51.032;7.082;2023-10-08T00:39:07;5.00;;;2.60;;
4148;SDS011;2088;51.032;7.082;2023-10-08T00:41:38;2.83;;;1.80;;
4148;SDS011;2088;51.032;7.082;2023-10-08T00:44:07;5.97;;;2.80;;
4148;SDS011;2088;51.032;7.082;2023-10-08T00:46:37;6.40;;;2.43;;
4148;SDS011;2088;51.032;7.082;2023-10-08T00:49:07;5.10;;;2.50;;
4148;SDS011;2088;51.032;7.082;2023-10-08T00:51:51;2.93;;;2.47;;
4148;SDS011;2088;51.032;7.082;2023-10-08T00:54:49;7.43;;;3.37;;
4148;SDS011;2088;51.032;7.082;2023-10-08T00:57:30;4.70;;;3.10;;
4148;SDS011;2088;51.032;7.082;2023-10-08T01:00:00;6.73;;;3.30;;
4148;SDS011;2088;51.032;7.082;2023-10-08T01:02:29;6.60;;;2.90;;
4148;SDS011;2088;51.032;7.082;2023-10-08T01:05:09;6.40;;;3.40;;
4148;SDS011;2088;51.032;7.082;2023-10-08T01:07:39;6.40;;;2.60;;
4148;SDS011;2088;51.032;7.082;2023-10-08T01:10:09;9.23;;;3.20;;
4148;SDS011;2088;51.032;7.082;2023-10-08T01:12:38;2.60;;;2.20;;
4148;SDS011;2088;51.032;7.082;2023-10-08T01:15:19;4.87;;;3.10;;
4148;SDS011;2088;51.032;7.082;2023-10-08T01:17:53;8.53;;;3.50;;
4148;SDS011;2088;51.032;7.082;2023-10-08T01:20:25;6.57;;;3.00;;
4148;SDS011;2088;51.032;7.082;2023-10-08T01:23:01;5.03;;;2.23;;
4148;SDS011;2088;51.032;7.082;2023-10-08T01:25:29;5.90;;;2.90;;
4148;SDS011;2088;51.032;7.082;2023-10-08T01:27:56;5.33;;;2.87;;
4148;SDS011;2088;51.032;7.082;2023-10-08T01:30:26;11.53;;;2.67;;
4148;SDS011;2088;51.032;7.082;2023-10-08T01:33:00;7.07;;;4.00;;
4148;SDS011;2088;51.032;7.082;2023-10-08T01:35:29;15.60;;;2.87;;
4148;SDS011;2088;51.032;7.082;2023-10-08T01:37:57;8.40;;;2.80;;
4148;SDS011;2088;51.032;7.082;2023-10-08T01:40:26;10.30;;;2.87;;
4148;SDS011;2088;51.032;7.082;2023-10-08T01:42:55;7.80;;;2.67;;
4148;SDS011;2088;51.032;7.082;2023-10-08T01:45:25;7.23;;;2.60;;
4148;SDS011;2088;51.032;7.082;2023-10-08T01:47:54;9.47;;;3.57;;
4148;SDS011;2088;51.032;7.082;2023-10-08T01:50:22;5.30;;;2.63;;
4148;SDS011;2088;51.032;7.082;2023-10-08T01:52:50;3.73;;;2.07;;
4148;SDS011;2088;51.032;7.082;2023-10-08T01:55:18;4.27;;;2.30;;
4148;SDS011;2088;51.032;7.082;2023-10-08T01:57:48;7.70;;;2.37;;
4148;SDS011;2088;51.032;7.082;2023-10-08T02:00:16;6.90;;;2.57;;
4148;SDS011;2088;51.032;7.082;2023-10-08T02:02:45;5.70;;;2.70;;
4148;SDS011;2088;51.032;7.082;2023-10-08T02:05:12;5.93;;;2.93;;
4148;SDS011;2088;51.032;7.082;2023-10-08T02:07:40;5.73;;;2.30;;
4148;SDS011;2088;51.032;7.082;2023-10-08T02:10:09;6.63;;;2.60;;
4148;SDS011;2088;51.032;7.082;2023-10-08T02:12:36;9.07;;;2.80;;
4148;SDS011;2088;51.032;7.082;2023-10-08T02:15:05;6.13;;;3.30;;
4148;SDS011;2088;51.032;7.082;2023-10-08T02:17:33;7.97;;;2.90;;
4148;SDS011;2088;51.032;7.082;2023-10-08T02:20:00;5.20;;;2.50;;
4148;SDS011;2088;51.032;7.082;2023-10-08T02:22:30;5.97;;;2.53;;
4148;SDS011;2088;51.032;7.082;2023-10-08T02:24:58;5.70;;;3.00;;
4148;SDS011;2088;51.032;7.082;2023-10-08T02:27:26;4.70;;;2.90;;
4148;SDS011;2088;51.032;7.082;2023-10-08T02:29:53;11.23;;;2.90;;
4148;SDS011;2088;51.032;7.082;2023-10-08T02:32:22;8.00;;;2.87;;
4148;SDS011;2088;51.032;7.082;2023-10-08T02:34:49;5.80;;;2.57;;
4148;SDS011;2088;51.032;7.082;2023-10-08T02:37:16;10.20;;;2.70;;
4148;SDS011;2088;51.032;7.082;2023-10-08T02:39:44;9.30;;;2.80;;
4148;SDS011;2088;51.032;7.082;2023-10-08T02:42:11;4.33;;;3.20;;
4148;SDS011;2088;51.032;7.082;2023-10-08T02:44:39;4.83;;;2.40;;
4148;SDS011;2088;51.032;7.082;2023-10-08T02:47:07;5.80;;;2.47;;
4148;SDS011;2088;51.032;7.082;2023-10-08T02:49:38;8.17;;;2.47;;
4148;SDS011;2088;51.032;7.082;2023-10-08T02:52:07;8.63;;;2.70;;
4148;SDS011;2088;51.032;7.082;2023-10-08T02:54:34;4.13;;;2.53;;
4148;SDS011;2088;51.032;7.082;2023-10-08T02:57:03;4.90;;;2.67;;
4148;SDS011;2088;51.032;7.082;2023-10-08T02:59:35;9.03;;;2.47;;
4148;SDS011;2088;51.032;7.082;2023-10-08T03:02:06;3.80;;;1.90;;
4148;SDS011;2088;51.032;7.082;2023-10-08T03:04:41;8.57;;;3.03;;
4148;SDS011;2088;51.032;7.082;2023-10-08T03:07:10;9.97;;;2.60;;
4148;SDS011;2088;51.032;7.082;2023-10-08T03:09:46;4.87;;;2.60;;
4148;SDS011;2088;51.032;7.082;2023-10-08T03:12:15;3.83;;;2.17;;
4148;SDS011;2088;51.032;7.082;2023-10-08T03:14:42;8.20;;;2.33;;
4148;SDS011;2088;51.032;7.082;2023-10-08T03:17:25;4.13;;;2.10;;
4148;SDS011;2088;51.032;7.082;2023-10-08T03:19:55;8.43;;;2.77;;
4148;SDS011;2088;51.032;7.082;2023-10-08T03:22:26;8.23;;;2.67;;
4148;SDS011;2088;51.032;7.082;2023-10-08T03:24:58;8.77;;;2.50;;
4148;SDS011;2088;51.032;7.082;2023-10-08T03:27:39;12.43;;;2.00;;
4148;SDS011;2088;51.032;7.082;2023-10-08T03:30:08;4.60;;;2.00;;
4148;SDS011;2088;51.032;7.082;2023-10-08T03:32:39;7.80;;;2.60;;
4148;SDS011;2088;51.032;7.082;2023-10-08T03:35:09;6.70;;;2.20;;
4148;SDS011;2088;51.032;7.082;2023-10-08T03:37:37;5.40;;;2.33;;
4148;SDS011;2088;51.032;7.082;2023-10-08T03:40:15;5.07;;;2.40;;
4148;SDS011;2088;51.032;7.082;2023-10-08T03:42:56;6.40;;;2.93;;
4148;SDS011;2088;51.032;7.082;2023-10-08T03:45:24;3.40;;;2.67;;
4148;SDS011;2088;51.032;7.082;2023-10-08T03:48:08;11.03;;;3.57;;
4148;SDS011;2088;51.032;7.082;2023-10-08T03:50:41;6.17;;;2.30;;
4148;SDS011;2088;51.032;7.082;2023-10-08T03:53:09;7.07;;;2.93;;
4148;SDS011;2088;51.032;7.082;2023-10-08T03:55:37;5.17;;;2.53;;
4148;SDS011;2088;51.032;7.082;2023-10-08T03:58:06;8.80;;;3.43;;
4148;SDS011;2088;51.032;7.082;2023-10-08T04:00:37;5.13;;;2.30;;
4148;SDS011;2088;51.032;7.082;2023-10-08T04:03:07;8.10;;;2.97;;
4148;SDS011;2088;51.032;7.082;2023-10-08T04:05:36;6.50;;;3.37;;
4148;SDS011;2088;51.032;7.082;2023-10-08T04:08:25;4.20;;;2.77;;
4148;SDS011;2088;51.032;7.082;2023-10-08T04:11:07;4.10;;;2.20;;
4148;SDS011;2088;51.032;7.082;2023-10-08T04:13:47;4.57;;;2.57;;
4148;SDS011;2088;51.032;7.082;2023-10-08T04:16:17;5.60;;;2.30;;
4148;SDS011;2088;51.032;7.082;2023-10-08T04:18:45;4.87;;;2.27;;
4148;SDS011;2088;51.032;7.082;2023-10-08T04:21:16;5.20;;;2.10;;
4148;SDS011;2088;51.032;7.082;2023-10-08T04:23:47;7.47;;;2.43;;
4148;SDS011;2088;51.032;7.082;2023-10-08T04:26:18;9.40;;;4.73;;
4148;SDS011;2088;51.032;7.082;2023-10-08T04:28:49;3.93;;;2.43;;
4148;SDS011;2088;51.032;7.082;2023-10-08T04:31:19;4.27;;;2.60;;
4148;SDS011;2088;51.032;7.082;2023-10-08T04:33:50;11.73;;;2.90;;
4148;SDS011;2088;51.032;7.082;2023-10-08T04:36:17;9.30;;;2.10;;
4148;SDS011;2088;51.032;7.082;2023-10-08T04:38:46;3.50;;;2.20;;
4148;SDS011;2088;51.032;7.082;2023-10-08T04:41:18;2.70;;;1.83;;
4148;SDS011;2088;51.032;7.082;2023-10-08T04:43:52;6.63;;;2.63;;
4148;SDS011;2088;51.032;7.082;2023-10-08T04:46:20;4.83;;;2.53;;
4148;SDS011;2088;51.032;7.082;2023-10-08T04:49:11;6.80;;;2.80;;
4148;SDS011;2088;51.032;7.082;2023-10-08T04:51:51;4.87;;;2.90;;
4148;SDS011;2088;51.032;7.082;2023-10-08T04:54:23;7.87;;;2.70;;
4148;SDS011;2088;51.032;7.082;2023-10-08T04:56:54;5.70;;;2.77;;
4148;SDS011;2088;51.032;7.082;2023-10-08T04:59:23;7.27;;;3.00;;
4148;SDS011;2088;51.032;7.082;2023-10-08T05:01:57;4.97;;;2.50;;
4148;SDS011;2088;51.032;7.082;2023-10-08T05:04:37;4.30;;;1.87;;
4148;SDS011;2088;51.032;7.082;2023-10-08T05:07:21;10.70;;;2.30;;
4148;SDS011;2088;51.032;7.082;2023-10-08T05:10:07;6.20;;;2.97;;
4148;SDS011;2088;51.032;7.082;2023-10-08T05:12:55;11.20;;;3.43;;
4148;SDS011;2088;51.032;7.082;2023-10-08T05:15:40;4.50;;;2.63;;
4148;SDS011;2088;51.032;7.082;2023-10-08T05:18:07;5.90;;;3.47;;
4148;SDS011;2088;51.032;7.082;2023-10-08T05:20:48;7.33;;;3.57;;
4148;SDS011;2088;51.032;7.082;2023-10-08T05:23:40;4.63;;;2.83;;
4148;SDS011;2088;51.032;7.082;2023-10-08T05:26:35;5.50;;;2.77;;
4148;SDS011;2088;51.032;7.082;2023-10-08T05:29:07;6.80;;;2.70;;
4148;SDS011;2088;51.032;7.082;2023-10-08T05:31:48;8.10;;;2.57;;
4148;SDS011;2088;51.032;7.082;2023-10-08T05:34:35;4.47;;;2.77;;
4148;SDS011;2088;51.032;7.082;2023-10-08T05:37:07;3.63;;;2.70;;
4148;SDS011;2088;51.032;7.082;2023-10-08T05:39:57;8.40;;;3.47;;
4148;SDS011;2088;51.032;7.082;2023-10-08T05:42:37;3.90;;;2.83;;
4148;SDS011;2088;51.032;7.082;2023-10-08T05:45:11;10.30;;;3.47;;
4148;SDS011;2088;51.032;7.082;2023-10-08T05:47:39;7.00;;;3.03;;
4148;SDS011;2088;51.032;7.082;2023-10-08T05:50:27;6.67;;;2.60;;
4148;SDS011;2088;51.032;7.082;2023-10-08T05:53:04;7.87;;;3.40;;
4148;SDS011;2088;51.032;7.082;2023-10-08T05:55:44;3.70;;;2.67;;
4148;SDS011;2088;51.032;7.082;2023-10-08T05:58:14;4.70;;;2.40;;
4148;SDS011;2088;51.032;7.082;2023-10-08T06:00:49;11.27;;;3.10;;
4148;SDS011;2088;51.032;7.082;2023-10-08T06:03:34;6.07;;;2.77;;
4148;SDS011;2088;51.032;7.082;2023-10-08T06:06:14;5.20;;;2.20;;
4148;SDS011;2088;51.032;7.082;2023-10-08T06:09:02;5.67;;;2.30;;
4148;SDS011;2088;51.032;7.082;2023-10-08T06:11:46;11.33;;;3.27;;
4148;SDS011;2088;51.032;7.082;2023-10-08T06:14:34;3.80;;;2.20;;
4148;SDS011;2088;51.032;7.082;2023-10-08T06:17:32;6.60;;;3.13;;
4148;SDS011;2088;51.032;7.082;2023-10-08T06:20:26;7.47;;;2.70;;
4148;SDS011;2088;51.032;7.082;2023-10-08T06:22:53;9.13;;;2.53;;
4148;SDS011;2088;51.032;7.082;2023-10-08T06:25:26;5.60;;;2.40;;
4148;SDS011;2088;51.032;7.082;2023-10-08T06:27:55;8.53;;;3.30;;
4148;SDS011;2088;51.032;7.082;2023-10-08T06:30:25;4.77;;;2.47;;
4148;SDS011;2088;51.032;7.082;2023-10-08T06:32:54;15.93;;;3.00;;
4148;SDS011;2088;51.032;7.082;2023-10-08T06:35:21;7.53;;;3.07;;
4148;SDS011;2088;51.032;7.082;2023-10-08T06:37:52;6.43;;;3.30;;
4148;SDS011;2088;51.032;7.082;2023-10-08T06:40:22;3.67;;;2.70;;
4148;SDS011;2088;51.032;7.082;2023-10-08T06:43:08;7.80;;;2.73;;
4148;SDS011;2088;51.032;7.082;2023-10-08T06:45:41;9.83;;;3.00;;
4148;SDS011;2088;51.032;7.082;2023-10-08T06:48:08;12.70;;;3.20;;
4148;SDS011;2088;51.032;7.082;2023-10-08T06:50:43;4.40;;;3.20;;
4148;SDS011;2088;51.032;7.082;2023-10-08T06:53:10;9.70;;;2.27;;
4148;SDS011;2088;51.032;7.082;2023-10-08T06:55:39;3.47;;;2.70;;
4148;SDS011;2088;51.032;7.082;2023-10-08T06:58:06;7.67;;;2.97;;
4148;SDS011;2088;51.032;7.082;2023-10-08T07:00:34;7.87;;;2.83;;
4148;SDS011;2088;51.032;7.082;2023-10-08T07:03:09;8.47;;;3.77;;
4148;SDS011;2088;51.032;7.082;2023-10-08T07:05:40;6.13;;;2.60;;
4148;SDS011;2088;51.032;7.082;2023-10-08T07:08:09;4.13;;;3.57;;
4148;SDS011;2088;51.032;7.082;2023-10-08T07:10:38;5.70;;;2.63;;
4148;SDS011;2088;51.032;7.082;2023-10-08T07:13:07;4.20;;;2.17;;
4148;SDS011;2088;51.032;7.082;2023-10-08T07:15:34;6.83;;;3.27;;
4148;SDS011;2088;51.032;7.082;2023-10-08T07:18:04;6.70;;;2.30;;
4148;SDS011;2088;51.032;7.082;2023-10-08T07:20:39;7.00;;;3.20;;
4148;SDS011;2088;51.032;7.082;2023-10-08T07:23:07;12.13;;;3.03;;
4148;SDS011;2088;51.032;7.082;2023-10-08T07:25:44;5.07;;;3.43;;
4148;SDS011;2088;51.032;7.082;2023-10-08T07:28:16;8.60;;;3.70;;
4148;SDS011;2088;51.032;7.082;2023-10-08T07:30:44;6.90;;;2.50;;
4148;SDS011;2088;51.032;7.082;2023-10-08T07:33:13;3.90;;;2.90;;
4148;SDS011;2088;51.032;7.082;2023-10-08T07:35:45;7.13;;;3.43;;
4148;SDS011;2088;51.032;7.082;2023-10-08T07:38:20;24.87;;;3.30;;
4148;SDS011;2088;51.032;7.082;2023-10-08T07:40:48;8.43;;;2.73;;
4148;SDS011;2088;51.032;7.082;2023-10-08T07:43:15;10.43;;;3.20;;
4148;SDS011;2088;51.032;7.082;2023-10-08T07:45:45;4.67;;;2.90;;
4148;SDS011;2088;51.032;7.082;2023-10-08T07:48:12;7.80;;;3.43;;
4148;SDS011;2088;51.032;7.082;2023-10-08T07:50:41;6.90;;;2.53;;
4148;SDS011;2088;51.032;7.082;2023-10-08T07:53:09;4.63;;;2.63;;
4148;SDS011;2088;51.032;7.082;2023-10-08T07:55:43;11.03;;;3.70;;
4148;SDS011;2088;51.032;7.082;2023-10-08T07:58:10;6.37;;;3.57;;
4148;SDS011;2088;51.032;7.082;2023-10-08T08:00:37;11.13;;;2.73;;
4148;SDS011;2088;51.032;7.082;2023-10-08T08:03:05;5.17;;;2.80;;
4148;SDS011;2088;51.032;7.082;2023-10-08T08:05:32;8.37;;;3.17;;
4148;SDS011;2088;51.032;7.082;2023-10-08T08:08:02;5.27;;;3.20;;
4148;SDS011;2088;51.032;7.082;2023-10-08T08:10:33;4.70;;;2.80;;
4148;SDS011;2088;51.032;7.082;2023-10-08T08:13:02;8.23;;;3.17;;
4148;SDS011;2088;51.032;7.082;2023-10-08T08:15:31;7.73;;;2.90;;
4148;SDS011;2088;51.032;7.082;2023-10-08T08:17:59;9.70;;;2.60;;
4148;SDS011;2088;51.032;7.082;2023-10-08T08:20:30;5.10;;;2.67;;
4148;SDS011;2088;51.032;7.082;2023-10-08T08:23:04;5.80;;;2.63;;
4148;SDS011;2088;51.032;7.082;2023-10-08T08:25:37;6.63;;;3.40;;
4148;SDS011;2088;51.032;7.082;2023-10-08T08:28:10;8.17;;;3.00;;
4148;SDS011;2088;51.032;7.082;2023-10-08T08:30:42;4.83;;;2.80;;
4148;SDS011;2088;51.032;7.082;2023-10-08T08:33:12;6.43;;;3.90;;
4148;SDS011;2088;51.032;7.082;2023-10-08T08:35:47;6.90;;;3.40;;
4148;SDS011;2088;51.032;7.082;2023-10-08T08:38:14;5.53;;;2.33;;
4148;SDS011;2088;51.032;7.082;2023-10-08T08:40:42;12.30;;;3.93;;
4148;SDS011;2088;51.032;7.082;2023-10-08T08:43:09;10.77;;;4.13;;
4148;SDS011;2088;51.032;7.082;2023-10-08T08:45:37;8.83;;;3.20;;
4148;SDS011;2088;51.032;7.082;2023-10-08T08:48:05;7.37;;;3.40;;
4148;SDS011;2088;51.032;7.082;2023-10-08T08:50:33;9.40;;;3.70;;
4148;SDS011;2088;51.032;7.082;2023-10-08T08:53:01;5.73;;;3.00;;
4148;SDS011;2088;51.032;7.082;2023-10-08T08:55:29;4.50;;;3.00;;
4148;SDS011;2088;51.032;7.082;2023-10-08T08:57:59;10.43;;;3.60;;
4148;SDS011;2088;51.032;7.082;2023-10-08T09:00:28;8.50;;;3.77;;
4148;SDS011;2088;51.032;7.082;2023-10-08T09:02:56;9.23;;;3.50;;
4148;SDS011;2088;51.032;7.082;2023-10-08T09:05:23;7.10;;;3.60;;
4148;SDS011;2088;51.032;7.082;2023-10-08T09:07:51;5.57;;;3.20;;
4148;SDS011;2088;51.032;7.082;2023-10-08T09:10:19;9.10;;;3.50;;
4148;SDS011;2088;51.032;7.082;2023-10-08T09:12:51;8.93;;;3.53;;
4148;SDS011;2088;51.032;7.082;2023-10-08T09:15:20;7.33;;;3.20;;
4148;SDS011;2088;51.032;7.082;2023-10-08T09:17:48;11.10;;;3.50;;
4148;SDS011;2088;51.032;7.082;2023-10-08T09:20:16;10.63;;;3.40;;
4148;SDS011;2088;51.032;7.082;2023-10-08T09:22:45;15.20;;;3.90;;
4148;SDS011;2088;51.032;7.082;2023-10-08T09:25:15;8.20;;;4.03;;
4148;SDS011;2088;51.032;7.082;2023-10-08T09:27:50;11.40;;;4.00;;
4148;SDS011;2088;51.032;7.082;2023-10-08T09:30:18;8.90;;;3.30;;
4148;SDS011;2088;51.032;7.082;2023-10-08T09:32:48;7.33;;;3.50;;
4148;SDS011;2088;51.032;7.082;2023-10-08T09:35:16;5.03;;;2.57;;
4148;SDS011;2088;51.032;7.082;2023-10-08T09:37:44;9.77;;;4.00;;
4148;SDS011;2088;51.032;7.082;2023-10-08T09:40:11;20.27;;;4.60;;
4148;SDS011;2088;51.032;7.082;2023-10-08T09:42:46;18.07;;;4.67;;
4148;SDS011;2088;51.032;7.082;2023-10-08T09:45:14;5.80;;;3.20;;
4148;SDS011;2088;51.032;7.082;2023-10-08T09:47:42;17.47;;;3.50;;
4148;SDS011;2088;51.032;7.082;2023-10-08T09:50:11;17.73;;;3.73;;
4148;SDS011;2088;51.032;7.082;2023-10-08T09:52:39;21.63;;;4.00;;
4148;SDS011;2088;51.032;7.082;2023-10-08T09:55:09;22.37;;;5.80;;
4148;SDS011;2088;51.032;7.082;2023-10-08T09:57:36;28.53;;;5.10;;
4148;SDS011;2088;51.032;7.082;2023-10-08T10:00:04;17.43;;;5.80;;
4148;SDS011;2088;51.032;7.082;2023-10-08T10:02:35;21.03;;;5.67;;
4148;SDS011;2088;51.032;7.082;2023-10-08T10:05:03;17.53;;;4.80;;
4148;SDS011;2088;51.032;7.082;2023-10-08T10:07:32;14.53;;;4.53;;
4148;SDS011;2088;51.032;7.082;2023-10-08T10:09:59;13.63;;;4.87;;
4148;SDS011;2088;51.032;7.082;2023-10-08T10:12:27;13.53;;;4.23;;
4148;SDS011;2088;51.032;7.082;2023-10-08T10:14:54;8.23;;;3.80;;
4148;SDS011;2088;51.032;7.082;2023-10-08T10:17:22;13.07;;;3.90;;
4148;SDS011;2088;51.032;7.082;2023-10-08T10:19:50;21.60;;;4.83;;
4148;SDS011;2088;51.032;7.082;2023-10-08T10:22:26;11.03;;;5.37;;
4148;SDS011;2088;51.032;7.082;2023-10-08T10:24:55;15.03;;;4.07;;
4148;SDS011;2088;51.032;7.082;2023-10-08T10:27:23;15.77;;;5.27;;
4148;SDS011;2088;51.032;7.082;2023-10-08T10:29:51;15.80;;;4.30;;
4148;SDS011;2088;51.032;7.082;2023-10-08T10:32:29;8.80;;;4.27;;
4148;SDS011;2088;51.032;7.082;2023-10-08T10:34:56;14.43;;;4.90;;
4148;SDS011;2088;51.032;7.082;2023-10-08T10:37:24;13.27;;;4.50;;
4148;SDS011;2088;51.032;7.082;2023-10-08T10:39:59;12.80;;;4.60;;
4148;SDS011;2088;51.032;7.082;2023-10-08T10:42:26;34.27;;;5.70;;
4148;SDS011;2088;51.032;7.082;2023-10-08T10:44:54;11.43;;;5.20;;
4148;SDS011;2088;51.032;7.082;2023-10-08T10:47:23;9.47;;;4.40;;
4148;SDS011;2088;51.032;7.082;2023-10-08T10:49:53;14.43;;;6.20;;
4148;SDS011;2088;51.032;7.082;2023-10-08T10:52:40;27.27;;;4.90;;
4148;SDS011;2088;51.032;7.082;2023-10-08T10:55:11;14.33;;;5.77;;
4148;SDS011;2088;51.032;7.082;2023-10-08T10:57:56;19.80;;;4.17;;
4148;SDS011;2088;51.032;7.082;2023-10-08T11:00:29;17.13;;;5.53;;
4148;SDS011;2088;51.032;7.082;2023-10-08T11:03:21;10.70;;;5.07;;
4148;SDS011;2088;51.032;7.082;2023-10-08T11:05:50;19.00;;;6.03;;
4148;SDS011;2088;51.032;7.082;2023-10-08T11:08:20;25.73;;;6.47;;
4148;SDS011;2088;51.032;7.082;2023-10-08T11:10:51;11.60;;;4.67;;
4148;SDS011;2088;51.032;7.082;2023-10-08T11:13:23;11.87;;;4.80;;
4148;SDS011;2088;51.032;7.082;2023-10-08T11:15:54;10.07;;;4.57;;
4148;SDS011;2088;51.032;7.082;2023-10-08T11:18:23;13.20;;;4.57;;
4148;SDS011;2088;51.032;7.082;2023-10-08T11:20:52;22.37;;;4.93;;
4148;SDS011;2088;51.032;7.082;2023-10-08T11:23:32;16.50;;;5.10;;
4148;SDS011;2088;51.032;7.082;2023-10-08T11:26:02;10.30;;;4.40;;
4148;SDS011;2088;51.032;7.082;2023-10-08T11:28:30;13.33;;;4.33;;
4148;SDS011;2088;51.032;7.082;2023-10-08T11:30:59;13.70;;;5.53;;
4148;SDS011;2088;51.032;7.082;2023-10-08T11:33:33;11.00;;;4.70;;
4148;SDS011;2088;51.032;7.082;2023-10-08T11:36:01;17.30;;;4.50;;
4148;SDS011;2088;51.032;7.082;2023-10-08T11:38:37;15.30;;;4.73;;
4148;SDS011;2088;51.032;7.082;2023-10-08T11:41:12;10.20;;;4.83;;
4148;SDS011;2088;51.032;7.082;2023-10-08T11:43:46;16.40;;;6.83;;
4148;SDS011;2088;51.032;7.082;2023-10-08T11:46:13;19.30;;;6.10;;
4148;SDS011;2088;51.032;7.082;2023-10-08T11:48:43;10.50;;;5.00;;
4148;SDS011;2088;51.032;7.082;2023-10-08T11:51:12;33.60;;;4.97;;
4148;SDS011;2088;51.032;7.082;2023-10-08T11:53:42;15.60;;;5.07;;
4148;SDS011;2088;51.032;7.082;2023-10-08T11:56:09;16.60;;;6.10;;
4148;SDS011;2088;51.032;7.082;2023-10-08T11:58:39;16.03;;;5.33;;
4148;SDS011;2088;51.032;7.082;2023-10-08T12:01:09;11.13;;;5.20;;
4148;SDS011;2088;51.032;7.082;2023-10-08T12:03:40;11.97;;;4.10;;
4148;SDS011;2088;51.032;7.082;2023-10-08T12:06:08;13.20;;;4.63;;
4148;SDS011;2088;51.032;7.082;2023-10-08T12:08:40;13.80;;;5.90;;
4148;SDS011;2088;51.032;7.082;2023-10-08T12:11:07;11.53;;;4.90;;
4148;SDS011;2088;51.032;7.082;2023-10-08T12:13:36;11.70;;;5.03;;
4148;SDS011;2088;51.032;7.082;2023-10-08T12:16:05;15.33;;;4.90;;
4148;SDS011;2088;51.032;7.082;2023-10-08T12:18:37;14.40;;;5.50;;
4148;SDS011;2088;51.032;7.082;2023-10-08T12:21:05;10.73;;;4.97;;
4148;SDS011;2088;51.032;7.082;2023-10-08T12:23:35;13.30;;;5.63;;
4148;SDS011;2088;51.032;7.082;2023-10-08T12:26:02;11.30;;;5.40;;
4148;SDS011;2088;51.032;7.082;2023-10-08T12:28:32;15.13;;;6.00;;
4148;SDS011;2088;51.032;7.082;2023-10-08T12:31:01;18.83;;;5.77;;
4148;SDS011;2088;51.032;7.082;2023-10-08T12:33:30;15.20;;;5.23;;
4148;SDS011;2088;51.032;7.082;2023-10-08T12:35:58;15.83;;;5.30;;
4148;SDS011;2088;51.032;7.082;2023-10-08T12:38:35;11.73;;;5.20;;
4148;SDS011;2088;51.032;7.082;2023-10-08T12:41:02;25.13;;;5.40;;
4148;SDS011;2088;51.032;7.082;2023-10-08T12:43:36;17.43;;;5.50;;
4148;SDS011;2088;51.032;7.082;2023-10-08T12:46:04;21.90;;;6.70;;
4148;SDS011;2088;51.032;7.082;2023-10-08T12:48:37;14.50;;;5.20;;
4148;SDS011;2088;51.032;7.082;2023-10-08T12:51:04;15.50;;;5.93;;
4148;SDS011;2088;51.032;7.082;2023-10-08T12:53:32;23.77;;;6.70;;
4148;SDS011;2088;51.032;7.082;2023-10-08T12:56:02;19.00;;;6.20;;
4148;SDS011;2088;51.032;7.082;2023-10-08T12:58:31;35.90;;;7.00;;
4148;SDS011;2088;51.032;7.082;2023-10-08T13:01:04;25.80;;;5.37;;
4148;SDS011;2088;51.032;7.082;2023-10-08T13:03:32;25.83;;;6.63;;
4148;SDS011;2088;51.032;7.082;2023-10-08T13:06:07;14.27;;;5.27;;
4148;SDS011;2088;51.032;7.082;2023-10-08T13:08:36;13.77;;;4.50;;
4148;SDS011;2088;51.032;7.082;2023-10-08T13:11:04;17.30;;;5.93;;
4148;SDS011;2088;51.032;7.082;2023-10-08T13:13:31;17.73;;;6.13;;
4148;SDS011;2088;51.032;7.082;2023-10-08T13:15:59;19.20;;;6.80;;
4148;SDS011;2088;51.032;7.082;2023-10-08T13:18:32;19.00;;;4.83;;
4148;SDS011;2088;51.032;7.082;2023-10-08T13:20:59;24.00;;;7.00;;
4148;SDS011;2088;51.032;7.082;2023-10-08T13:23:29;13.10;;;5.80;;
4148;SDS011;2088;51.032;7.082;2023-10-08T13:26:00;27.67;;;6.70;;
4148;SDS011;2088;51.032;7.082;2023-10-08T13:28:29;22.20;;;8.30;;
4148;SDS011;2088;51.032;7.082;2023-10-08T13:30:58;13.00;;;5.50;;
4148;SDS011;2088;51.032;7.082;2023-10-08T13:33:26;21.63;;;5.70;;
4148;SDS011;2088;51.032;7.082;2023-10-08T13:35:53;18.87;;;5.83;;
4148;SDS011;2088;51.032;7.082;2023-10-08T13:38:20;12.83;;;5.93;;
4148;SDS011;2088;51.032;7.082;2023-10-08T13:40:49;14.00;;;5.97;;
4148;SDS011;2088;51.032;7.082;2023-10-08T13:43:31;18.97;;;6.47;;
4148;SDS011;2088;51.032;7.082;2023-10-08T13:46:02;14.30;;;6.10;;
4148;SDS011;2088;51.032;7.082;2023-10-08T13:48:31;15.43;;;6.10;;
4148;SDS011;2088;51.032;7.082;2023-10-08T13:50:59;22.93;;;6.33;;
4148;SDS011;2088;51.032;7.082;2023-10-08T13:53:28;15.17;;;6.20;;
4148;SDS011;2088;51.032;7.082;2023-10-08T13:55:57;22.60;;;6.20;;
4148;SDS011;2088;51.032;7.082;2023-10-08T13:58:25;18.37;;;6.30;;
4148;SDS011;2088;51.032;7.082;2023-10-08T14:00:53;17.00;;;6.50;;
4148;SDS011;2088;51.032;7.082;2023-10-08T14:03:20;26.43;;;4.80;;
4148;SDS011;2088;51.032;7.082;2023-10-08T14:05:48;21.07;;;6.40;;
4148;SDS011;2088;51.032;7.082;2023-10-08T14:08:16;12.63;;;6.10;;
4148;SDS011;2088;51.032;7.082;2023-10-08T14:10:43;14.00;;;5.90;;
4148;SDS011;2088;51.032;7.082;2023-10-08T14:13:13;22.23;;;5.63;;
4148;SDS011;2088;51.032;7.082;2023-10-08T14:15:44;13.57;;;6.17;;
4148;SDS011;2088;51.032;7.082;2023-10-08T14:18:20;16.17;;;5.97;;
4148;SDS011;2088;51.032;7.082;2023-10-08T14:20:53;14.30;;;5.30;;
4148;SDS011;2088;51.032;7.082;2023-10-08T14:23:20;13.17;;;5.97;;
4148;SDS011;2088;51.032;7.082;2023-10-08T14:25:50;9.47;;;4.90;;
4148;SDS011;2088;51.032;7.082;2023-10-08T14:28:18;22.53;;;5.20;;
4148;SDS011;2088;51.032;7.082;2023-10-08T14:31:01;20.17;;;5.13;;
4148;SDS011;2088;51.032;7.082;2023-10-08T14:33:28;15.80;;;5.20;;
4148;SDS011;2088;51.032;7.082;2023-10-08T14:35:57;16.27;;;5.73;;
4148;SDS011;2088;51.032;7.082;2023-10-08T14:38:57;11.40;;;4.87;;
4148;SDS011;2088;51.032;7.082;2023-10-08T14:41:41;25.13;;;6.37;;
4148;SDS011;2088;51.032;7.082;2023-10-08T14:44:42;21.23;;;5.40;;
4148;SDS011;2088;51.032;7.082;2023-10-08T14:47:09;18.10;;;6.10;;
4148;SDS011;2088;51.032;7.082;2023-10-08T14:49:36;14.27;;;5.37;;
4148;SDS011;2088;51.032;7.082;2023-10-08T14:52:03;16.10;;;5.80;;
4148;SDS011;2088;51.032;7.082;2023-10-08T14:54:30;15.53;;;5.83;;
4148;SDS011;2088;51.032;7.082;2023-10-08T14:56:58;15.17;;;6.03;;
4148;SDS011;2088;51.032;7.082;2023-10-08T14:59:27;20.30;;;6.13;;
4148;SDS011;2088;51.032;7.082;2023-10-08T15:01:57;17.70;;;6.50;;
4148;SDS011;2088;51.032;7.082;2023-10-08T15:04:24;14.40;;;5.43;;
4148;SDS011;2088;51.032;7.082;2023-10-08T15:06:53;13.07;;;5.13;;
4148;SDS011;2088;51.032;7.082;2023-10-08T15:09:21;9.13;;;5.07;;
4148;SDS011;2088;51.032;7.082;2023-10-08T15:11:49;14.77;;;5.90;;
4148;SDS011;2088;51.032;7.082;2023-10-08T15:14:17;20.43;;;5.87;;
4148;SDS011;2088;51.032;7.082;2023-10-08T15:16:45;14.90;;;5.20;;
4148;SDS011;2088;51.032;7.082;2023-10-08T15:19:18;15.33;;;5.27;;
4148;SDS011;2088;51.032;7.082;2023-10-08T15:21:46;21.83;;;5.67;;
4148;SDS011;2088;51.032;7.082;2023-10-08T15:24:15;16.20;;;5.20;;
4148;SDS011;2088;51.032;7.082;2023-10-08T15:26:42;20.10;;;5.97;;
4148;SDS011;2088;51.032;7.082;2023-10-08T15:29:09;18.10;;;6.07;;
4148;SDS011;2088;51.032;7.082;2023-10-08T15:31:38;15.50;;;6.13;;
4148;SDS011;2088;51.032;7.082;2023-10-08T15:34:06;12.23;;;4.87;;
4148;SDS011;2088;51.032;7.082;2023-10-08T15:36:34;12.57;;;5.23;;